sensor_id;sensor_type;location;lat;lon;timestamp;P1;durP1;ratioP1;P2;durP2;ratioP2
25435;SDS011;13363;52.772;-3.890;2022-08-06T00:01:55;6.77;;;6.27;;
25435;SDS011;13363;52.772;-3.890;2022-08-06T00:04:21;8.53;;;6.27;;
25435;SDS011;13363;52.772;-3.890;2022-08-06T00:06:47;6.90;;;5.43;;
25435;SDS011;13363;52.772;-3.890;2022-08-06T00:09:13;6.37;;;5.77;;
25435;SDS011;13363;52.772;-3.890;2022-08-06T00:11:39;6.60;;;6.00;;
25435;SDS011;13363;52.772;-3.890;2022-08-06T00:14:08;6.47;;;5.93;;
25435;SDS011;13363;52.772;-3.890;2022-08-06T00:16:35;6.13;;;5.63;;
25435;SDS011;13363;52.772;-3.890;2022-08-06T00:19:01;6.17;;;5.70;;
25435;SDS011;13363;52.772;-3.890;2022-08-06T00:21:27;5.20;;;4.70;;
25435;SDS011;13363;52.772;-3.890;2022-08-06T00:23:53;6.83;;;5.83;;
25435;SDS011;13363;52.772;-3.890;2022-08-06T00:26:19;6.33;;;5.73;;
25435;SDS011;13363;52.772;-3.890;2022-08-06T00:28:45;6.13;;;5.57;;
25435;SDS011;13363;52.772;-3.890;2022-08-06T00:31:11;7.50;;;6.13;;
25435;SDS011;13363;52.772;-3.890;2022-08-06T00:33:40;6.60;;;5.87;;
25435;SDS011;13363;52.772;-3.890;2022-08-06T00:36:06;6.43;;;5.53;;
25435;SDS011;13363;52.772;-3.890;2022-08-06T00:38:33;5.90;;;5.40;;
25435;SDS011;13363;52.772;-3.890;2022-08-06T00:40:59;6.07;;;5.57;;
25435;SDS011;13363;52.772;-3.890;2022-08-06T00:43:26;7.23;;;5.67;;
25435;SDS011;13363;52.772;-3.890;2022-08-06T00:45:52;7.50;;;6.20;;
25435;SDS011;13363;52.772;-3.890;2022-08-06T00:48:18;8.83;;;6.20;;
25435;SDS011;13363;52.772;-3.890;2022-08-06T00:50:44;7.47;;;5.50;;
25435;SDS011;13363;52.772;-3.890;2022-08-06T00:53:10;6.23;;;5.63;;
25435;SDS011;13363;52.772;-3.890;2022-08-06T00:55:36;7.83;;;6.00;;
25435;SDS011;13363;52.772;-3.890;2022-08-06T00:58:03;6.00;;;5.40;;
25435;SDS011;13363;52.772;-3.890;2022-08-06T01:00:29;6.23;;;5.67;;
25435;SDS011;13363;52.772;-3.890;2022-08-06T01:02:55;5.57;;;5.17;;
25435;SDS011;13363;52.772;-3.890;2022-08-06T01:05:21;7.33;;;5.57;;
25435;SDS011;13363;52.772;-3.890;2022-08-06T01:07:47;7.07;;;5.83;;
25435;SDS011;13363;52.772;-3.890;2022-08-06T01:10:13;5.70;;;5.10;;
25435;SDS011;13363;52.772;-3.890;2022-08-06T01:12:39;6.37;;;5.87;;
25435;SDS011;13363;52.772;-3.890;2022-08-06T01:15:05;6.20;;;5.60;;
25435;SDS011;13363;52.772;-3.890;2022-08-06T01:17:39;5.97;;;5.40;;
25435;SDS011;13363;52.772;-3.890;2022-08-06T01:26:42;4.93;;;4.53;;
25435;SDS011;13363;52.772;-3.890;2022-08-06T01:29:36;5.80;;;5.07;;
25435;SDS011;13363;52.772;-3.890;2022-08-06T01:32:06;6.77;;;5.77;;
25435;SDS011;13363;52.772;-3.890;2022-08-06T01:34:40;6.13;;;5.33;;
25435;SDS011;13363;52.772;-3.890;2022-08-06T01:37:30;7.53;;;6.00;;
25435;SDS011;13363;52.772;-3.890;2022-08-06T01:40:00;9.00;;;6.30;;
25435;SDS011;13363;52.772;-3.890;2022-08-06T01:42:30;5.87;;;5.47;;
25435;SDS011;13363;52.772;-3.890;2022-08-06T01:44:58;6.53;;;5.93;;
25435;SDS011;13363;52.772;-3.890;2022-08-06T01:47:29;6.40;;;5.77;;
25435;SDS011;13363;52.772;-3.890;2022-08-06T01:49:57;7.07;;;6.43;;
25435;SDS011;13363;52.772;-3.890;2022-08-06T01:52:27;5.83;;;5.33;;
25435;SDS011;13363;52.772;-3.890;2022-08-06T01:55:15;6.00;;;5.50;;
25435;SDS011;13363;52.772;-3.890;2022-08-06T01:57:46;6.40;;;5.90;;
25435;SDS011;13363;52.772;-3.890;2022-08-06T02:00:18;6.87;;;5.90;;
25435;SDS011;13363;52.772;-3.890;2022-08-06T02:02:45;5.73;;;5.23;;
25435;SDS011;13363;52.772;-3.890;2022-08-06T02:05:13;7.93;;;5.63;;
25435;SDS011;13363;52.772;-3.890;2022-08-06T02:07:42;5.30;;;4.90;;
25435;SDS011;13363;52.772;-3.890;2022-08-06T02:10:13;5.87;;;5.23;;
25435;SDS011;13363;52.772;-3.890;2022-08-06T02:12:42;5.70;;;4.90;;
25435;SDS011;13363;52.772;-3.890;2022-08-06T02:15:17;6.30;;;5.03;;
25435;SDS011;13363;52.772;-3.890;2022-08-06T02:17:52;5.53;;;5.03;;
25435;SDS011;13363;52.772;-3.890;2022-08-06T02:20:28;5.13;;;4.73;;
25435;SDS011;13363;52.772;-3.890;2022-08-06T02:23:01;5.37;;;4.87;;
25435;SDS011;13363;52.772;-3.890;2022-08-06T02:25:28;5.13;;;4.63;;
25435;SDS011;13363;52.772;-3.890;2022-08-06T02:27:56;4.50;;;4.10;;
25435;SDS011;13363;52.772;-3.890;2022-08-06T02:30:25;5.83;;;5.17;;
25435;SDS011;13363;52.772;-3.890;2022-08-06T02:32:56;5.97;;;5.37;;
25435;SDS011;13363;52.772;-3.890;2022-08-06T02:35:22;5.63;;;5.13;;
25435;SDS011;13363;52.772;-3.890;2022-08-06T02:37:50;7.03;;;5.07;;
25435;SDS011;13363;52.772;-3.890;2022-08-06T02:40:25;5.20;;;4.67;;
25435;SDS011;13363;52.772;-3.890;2022-08-06T02:43:01;6.17;;;3.73;;
25435;SDS011;13363;52.772;-3.890;2022-08-06T02:45:32;5.07;;;4.20;;
25435;SDS011;13363;52.772;-3.890;2022-08-06T02:48:07;5.27;;;4.87;;
25435;SDS011;13363;52.772;-3.890;2022-08-06T02:50:41;5.63;;;5.07;;
25435;SDS011;13363;52.772;-3.890;2022-08-06T02:53:11;5.30;;;4.80;;
25435;SDS011;13363;52.772;-3.890;2022-08-06T02:55:43;6.17;;;4.87;;
25435;SDS011;13363;52.772;-3.890;2022-08-06T02:58:14;5.43;;;4.93;;
25435;SDS011;13363;52.772;-3.890;2022-08-06T03:00:45;4.90;;;4.60;;
25435;SDS011;13363;52.772;-3.890;2022-08-06T03:03:14;6.07;;;5.00;;
25435;SDS011;13363;52.772;-3.890;2022-08-06T03:05:41;6.20;;;5.17;;
25435;SDS011;13363;52.772;-3.890;2022-08-06T03:08:10;5.33;;;4.83;;
25435;SDS011;13363;52.772;-3.890;2022-08-06T03:10:41;6.90;;;5.00;;
25435;SDS011;13363;52.772;-3.890;2022-08-06T03:13:08;6.80;;;4.80;;
25435;SDS011;13363;52.772;-3.890;2022-08-06T03:15:35;6.37;;;4.80;;
25435;SDS011;13363;52.772;-3.890;2022-08-06T03:18:05;4.67;;;4.27;;
25435;SDS011;13363;52.772;-3.890;2022-08-06T03:20:32;5.10;;;4.70;;
25435;SDS011;13363;52.772;-3.890;2022-08-06T03:23:00;5.77;;;4.87;;
25435;SDS011;13363;52.772;-3.890;2022-08-06T03:25:31;5.93;;;5.33;;
25435;SDS011;13363;52.772;-3.890;2022-08-06T03:27:58;5.30;;;4.80;;
25435;SDS011;13363;52.772;-3.890;2022-08-06T03:30:24;5.10;;;4.70;;
25435;SDS011;13363;52.772;-3.890;2022-08-06T03:32:51;4.77;;;4.47;;
25435;SDS011;13363;52.772;-3.890;2022-08-06T03:35:18;4.87;;;4.53;;
25435;SDS011;13363;52.772;-3.890;2022-08-06T03:37:45;4.73;;;4.43;;
25435;SDS011;13363;52.772;-3.890;2022-08-06T03:40:13;4.80;;;4.40;;
25435;SDS011;13363;52.772;-3.890;2022-08-06T03:42:42;5.17;;;4.70;;
25435;SDS011;13363;52.772;-3.890;2022-08-06T03:45:08;5.70;;;4.90;;
25435;SDS011;13363;52.772;-3.890;2022-08-06T03:47:37;5.07;;;4.57;;
25435;SDS011;13363;52.772;-3.890;2022-08-06T03:52:39;5.30;;;4.60;;
25435;SDS011;13363;52.772;-3.890;2022-08-06T03:55:08;5.30;;;4.80;;
25435;SDS011;13363;52.772;-3.890;2022-08-06T03:57:41;5.20;;;4.70;;
25435;SDS011;13363;52.772;-3.890;2022-08-06T04:00:13;4.67;;;3.97;;
25435;SDS011;13363;52.772;-3.890;2022-08-06T04:02:42;5.07;;;4.67;;
25435;SDS011;13363;52.772;-3.890;2022-08-06T04:05:12;4.53;;;4.13;;
25435;SDS011;13363;52.772;-3.890;2022-08-06T04:08:02;4.50;;;4.10;;
25435;SDS011;13363;52.772;-3.890;2022-08-06T04:10:40;4.87;;;4.47;;
25435;SDS011;13363;52.772;-3.890;2022-08-06T04:13:09;4.60;;;4.20;;
25435;SDS011;13363;52.772;-3.890;2022-08-06T04:15:37;4.43;;;4.13;;
25435;SDS011;13363;52.772;-3.890;2022-08-06T04:18:05;4.43;;;4.10;;
25435;SDS011;13363;52.772;-3.890;2022-08-06T04:20:35;5.57;;;4.33;;
25435;SDS011;13363;52.772;-3.890;2022-08-06T04:23:05;4.83;;;4.30;;
25435;SDS011;13363;52.772;-3.890;2022-08-06T04:25:33;5.27;;;4.13;;
25435;SDS011;13363;52.772;-3.890;2022-08-06T04:28:02;5.67;;;4.43;;
25435;SDS011;13363;52.772;-3.890;2022-08-06T04:30:30;5.17;;;4.77;;
25435;SDS011;13363;52.772;-3.890;2022-08-06T04:32:57;5.07;;;4.57;;
25435;SDS011;13363;52.772;-3.890;2022-08-06T04:35:24;5.27;;;4.77;;
25435;SDS011;13363;52.772;-3.890;2022-08-06T04:37:51;4.83;;;4.40;;
25435;SDS011;13363;52.772;-3.890;2022-08-06T04:40:17;5.30;;;4.80;;
25435;SDS011;13363;52.772;-3.890;2022-08-06T04:42:44;4.67;;;4.27;;
25435;SDS011;13363;52.772;-3.890;2022-08-06T04:45:10;4.70;;;4.30;;
25435;SDS011;13363;52.772;-3.890;2022-08-06T04:47:36;4.90;;;4.07;;
25435;SDS011;13363;52.772;-3.890;2022-08-06T04:50:05;5.13;;;3.83;;
25435;SDS011;13363;52.772;-3.890;2022-08-06T04:52:31;6.50;;;4.53;;
25435;SDS011;13363;52.772;-3.890;2022-08-06T04:54:57;3.73;;;3.50;;
25435;SDS011;13363;52.772;-3.890;2022-08-06T04:57:23;5.40;;;4.27;;
25435;SDS011;13363;52.772;-3.890;2022-08-06T04:59:49;4.53;;;4.10;;
25435;SDS011;13363;52.772;-3.890;2022-08-06T05:02:15;4.07;;;3.83;;
25435;SDS011;13363;52.772;-3.890;2022-08-06T05:04:41;5.00;;;4.30;;
25435;SDS011;13363;52.772;-3.890;2022-08-06T05:07:13;5.73;;;4.07;;
25435;SDS011;13363;52.772;-3.890;2022-08-06T05:09:43;4.80;;;4.40;;
25435;SDS011;13363;52.772;-3.890;2022-08-06T05:14:57;4.77;;;4.10;;
25435;SDS011;13363;52.772;-3.890;2022-08-06T05:17:29;4.70;;;4.30;;
25435;SDS011;13363;52.772;-3.890;2022-08-06T05:19:59;4.63;;;4.23;;
25435;SDS011;13363;52.772;-3.890;2022-08-06T05:22:36;5.40;;;4.50;;
25435;SDS011;13363;52.772;-3.890;2022-08-06T05:25:03;4.60;;;4.20;;
25435;SDS011;13363;52.772;-3.890;2022-08-06T05:27:30;3.97;;;3.70;;
25435;SDS011;13363;52.772;-3.890;2022-08-06T05:29:56;4.57;;;3.80;;
25435;SDS011;13363;52.772;-3.890;2022-08-06T05:32:22;4.53;;;4.13;;
25435;SDS011;13363;52.772;-3.890;2022-08-06T05:34:48;4.17;;;3.87;;
25435;SDS011;13363;52.772;-3.890;2022-08-06T05:37:14;4.87;;;4.47;;
25435;SDS011;13363;52.772;-3.890;2022-08-06T05:39:40;4.30;;;3.97;;
25435;SDS011;13363;52.772;-3.890;2022-08-06T05:42:06;4.80;;;4.50;;
25435;SDS011;13363;52.772;-3.890;2022-08-06T05:44:32;4.37;;;4.07;;
25435;SDS011;13363;52.772;-3.890;2022-08-06T05:47:01;3.90;;;3.50;;
25435;SDS011;13363;52.772;-3.890;2022-08-06T05:49:41;5.13;;;4.40;;
25435;SDS011;13363;52.772;-3.890;2022-08-06T05:52:17;4.33;;;4.00;;
25435;SDS011;13363;52.772;-3.890;2022-08-06T05:57:45;4.03;;;3.73;;
25435;SDS011;13363;52.772;-3.890;2022-08-06T06:00:18;4.23;;;3.90;;
25435;SDS011;13363;52.772;-3.890;2022-08-06T06:02:46;5.10;;;4.10;;
25435;SDS011;13363;52.772;-3.890;2022-08-06T06:05:14;4.20;;;3.90;;
25435;SDS011;13363;52.772;-3.890;2022-08-06T06:07:41;4.30;;;4.00;;
25435;SDS011;13363;52.772;-3.890;2022-08-06T06:10:07;4.23;;;3.50;;
25435;SDS011;13363;52.772;-3.890;2022-08-06T06:12:35;4.17;;;3.87;;
25435;SDS011;13363;52.772;-3.890;2022-08-06T06:15:02;4.47;;;3.83;;
25435;SDS011;13363;52.772;-3.890;2022-08-06T06:31:44;3.50;;;3.03;;
25435;SDS011;13363;52.772;-3.890;2022-08-06T06:37:23;3.80;;;3.40;;
25435;SDS011;13363;52.772;-3.890;2022-08-06T06:42:40;3.40;;;3.20;;
25435;SDS011;13363;52.772;-3.890;2022-08-06T06:46:17;3.47;;;3.27;;
25435;SDS011;13363;52.772;-3.890;2022-08-06T06:48:33;3.30;;;3.00;;
25435;SDS011;13363;52.772;-3.890;2022-08-06T06:51:40;3.13;;;2.83;;
25435;SDS011;13363;52.772;-3.890;2022-08-06T06:54:04;3.10;;;2.90;;
25435;SDS011;13363;52.772;-3.890;2022-08-06T06:56:35;3.50;;;3.20;;
25435;SDS011;13363;52.772;-3.890;2022-08-06T06:59:07;3.37;;;2.83;;
25435;SDS011;13363;52.772;-3.890;2022-08-06T07:01:42;2.53;;;2.43;;
25435;SDS011;13363;52.772;-3.890;2022-08-06T07:04:10;3.33;;;3.13;;
25435;SDS011;13363;52.772;-3.890;2022-08-06T07:06:41;2.93;;;2.67;;
25435;SDS011;13363;52.772;-3.890;2022-08-06T07:09:20;2.83;;;2.63;;
25435;SDS011;13363;52.772;-3.890;2022-08-06T07:11:48;2.73;;;2.53;;
25435;SDS011;13363;52.772;-3.890;2022-08-06T07:14:18;2.70;;;2.50;;
25435;SDS011;13363;52.772;-3.890;2022-08-06T07:16:45;3.00;;;2.90;;
25435;SDS011;13363;52.772;-3.890;2022-08-06T07:19:13;4.33;;;3.10;;
25435;SDS011;13363;52.772;-3.890;2022-08-06T07:21:43;3.43;;;3.23;;
25435;SDS011;13363;52.772;-3.890;2022-08-06T07:24:11;3.20;;;3.00;;
25435;SDS011;13363;52.772;-3.890;2022-08-06T07:26:41;3.53;;;3.27;;
25435;SDS011;13363;52.772;-3.890;2022-08-06T07:29:09;3.35;;;3.15;;
25435;SDS011;13363;52.772;-3.890;2022-08-06T07:31:37;3.50;;;3.20;;
25435;SDS011;13363;52.772;-3.890;2022-08-06T07:34:04;3.45;;;3.13;;
25435;SDS011;13363;52.772;-3.890;2022-08-06T07:36:31;3.72;;;3.10;;
25435;SDS011;13363;52.772;-3.890;2022-08-06T07:39:07;2.83;;;2.67;;
25435;SDS011;13363;52.772;-3.890;2022-08-06T07:41:35;2.80;;;2.60;;
25435;SDS011;13363;52.772;-3.890;2022-08-06T07:44:02;3.07;;;2.87;;
25435;SDS011;13363;52.772;-3.890;2022-08-06T07:46:34;3.60;;;3.20;;
25435;SDS011;13363;52.772;-3.890;2022-08-06T07:49:04;3.07;;;2.87;;
25435;SDS011;13363;52.772;-3.890;2022-08-06T07:51:33;3.50;;;3.20;;
25435;SDS011;13363;52.772;-3.890;2022-08-06T07:54:01;3.20;;;3.00;;
25435;SDS011;13363;52.772;-3.890;2022-08-06T07:56:29;3.17;;;2.87;;
25435;SDS011;13363;52.772;-3.890;2022-08-06T07:58:55;3.40;;;3.20;;
25435;SDS011;13363;52.772;-3.890;2022-08-06T08:01:23;4.03;;;3.70;;
25435;SDS011;13363;52.772;-3.890;2022-08-06T08:03:49;3.80;;;3.40;;
25435;SDS011;13363;52.772;-3.890;2022-08-06T08:06:34;4.23;;;3.80;;
25435;SDS011;13363;52.772;-3.890;2022-08-06T08:09:16;3.90;;;3.50;;
25435;SDS011;13363;52.772;-3.890;2022-08-06T08:11:46;3.70;;;3.40;;
25435;SDS011;13363;52.772;-3.890;2022-08-06T08:14:15;4.30;;;3.93;;
25435;SDS011;13363;52.772;-3.890;2022-08-06T08:16:43;4.27;;;3.83;;
25435;SDS011;13363;52.772;-3.890;2022-08-06T08:19:26;4.67;;;4.37;;
25435;SDS011;13363;52.772;-3.890;2022-08-06T08:21:59;4.03;;;3.70;;
25435;SDS011;13363;52.772;-3.890;2022-08-06T08:24:28;5.30;;;3.47;;
25435;SDS011;13363;52.772;-3.890;2022-08-06T08:26:56;3.15;;;2.92;;
25435;SDS011;13363;52.772;-3.890;2022-08-06T08:29:23;3.70;;;3.50;;
25435;SDS011;13363;52.772;-3.890;2022-08-06T08:31:51;3.58;;;3.38;;
25435;SDS011;13363;52.772;-3.890;2022-08-06T08:34:17;3.47;;;3.17;;
25435;SDS011;13363;52.772;-3.890;2022-08-06T08:36:43;3.58;;;3.38;;
25435;SDS011;13363;52.772;-3.890;2022-08-06T08:39:09;3.50;;;3.20;;
25435;SDS011;13363;52.772;-3.890;2022-08-06T08:41:39;3.47;;;3.28;;
25435;SDS011;13363;52.772;-3.890;2022-08-06T08:44:08;3.90;;;3.65;;
25435;SDS011;13363;52.772;-3.890;2022-08-06T08:46:36;4.65;;;3.53;;
25435;SDS011;13363;52.772;-3.890;2022-08-06T08:49:08;3.85;;;3.20;;
25435;SDS011;13363;52.772;-3.890;2022-08-06T08:51:50;3.25;;;3.05;;
25435;SDS011;13363;52.772;-3.890;2022-08-06T08:54:18;3.72;;;3.47;;
25435;SDS011;13363;52.772;-3.890;2022-08-06T08:56:47;4.13;;;2.72;;
25435;SDS011;13363;52.772;-3.890;2022-08-06T08:59:14;5.03;;;3.58;;
25435;SDS011;13363;52.772;-3.890;2022-08-06T09:01:41;4.18;;;3.78;;
25435;SDS011;13363;52.772;-3.890;2022-08-06T09:04:08;3.45;;;3.25;;
25435;SDS011;13363;52.772;-3.890;2022-08-06T09:06:35;3.38;;;3.00;;
25435;SDS011;13363;52.772;-3.890;2022-08-06T09:09:02;4.40;;;3.13;;
25435;SDS011;13363;52.772;-3.890;2022-08-06T09:11:33;3.33;;;3.03;;
25435;SDS011;13363;52.772;-3.890;2022-08-06T09:14:09;5.93;;;2.72;;
25435;SDS011;13363;52.772;-3.890;2022-08-06T09:16:36;3.40;;;3.10;;
25435;SDS011;13363;52.772;-3.890;2022-08-06T09:19:03;5.10;;;3.25;;
25435;SDS011;13363;52.772;-3.890;2022-08-06T09:21:31;3.10;;;2.80;;
25435;SDS011;13363;52.772;-3.890;2022-08-06T09:23:57;3.17;;;2.88;;
25435;SDS011;13363;52.772;-3.890;2022-08-06T09:26:24;3.10;;;2.78;;
25435;SDS011;13363;52.772;-3.890;2022-08-06T09:28:50;5.63;;;2.90;;
25435;SDS011;13363;52.772;-3.890;2022-08-06T09:31:16;5.60;;;3.23;;
25435;SDS011;13363;52.772;-3.890;2022-08-06T09:33:56;2.87;;;2.67;;
25435;SDS011;13363;52.772;-3.890;2022-08-06T09:36:27;3.25;;;2.95;;
25435;SDS011;13363;52.772;-3.890;2022-08-06T09:38:57;3.80;;;2.80;;
25435;SDS011;13363;52.772;-3.890;2022-08-06T09:41:25;4.00;;;2.90;;
25435;SDS011;13363;52.772;-3.890;2022-08-06T09:43:55;3.80;;;2.90;;
25435;SDS011;13363;52.772;-3.890;2022-08-06T09:49:10;3.27;;;2.97;;
25435;SDS011;13363;52.772;-3.890;2022-08-06T09:51:37;3.00;;;2.80;;
25435;SDS011;13363;52.772;-3.890;2022-08-06T09:54:04;4.10;;;3.40;;
25435;SDS011;13363;52.772;-3.890;2022-08-06T09:56:34;3.83;;;2.50;;
25435;SDS011;13363;52.772;-3.890;2022-08-06T09:59:05;5.80;;;2.50;;
25435;SDS011;13363;52.772;-3.890;2022-08-06T10:01:44;3.83;;;3.27;;
25435;SDS011;13363;52.772;-3.890;2022-08-06T10:04:23;6.70;;;2.70;;
25435;SDS011;13363;52.772;-3.890;2022-08-06T10:06:56;3.73;;;2.67;;
25435;SDS011;13363;52.772;-3.890;2022-08-06T10:09:24;3.70;;;1.80;;
25435;SDS011;13363;52.772;-3.890;2022-08-06T10:11:50;2.73;;;2.17;;
25435;SDS011;13363;52.772;-3.890;2022-08-06T10:14:21;17.20;;;4.03;;
25435;SDS011;13363;52.772;-3.890;2022-08-06T10:17:03;2.60;;;2.27;;
25435;SDS011;13363;52.772;-3.890;2022-08-06T10:19:40;2.97;;;2.00;;
25435;SDS011;13363;52.772;-3.890;2022-08-06T10:22:11;3.83;;;1.93;;
25435;SDS011;13363;52.772;-3.890;2022-08-06T10:24:43;2.33;;;2.03;;
25435;SDS011;13363;52.772;-3.890;2022-08-06T10:27:11;2.70;;;2.27;;
25435;SDS011;13363;52.772;-3.890;2022-08-06T10:29:40;3.07;;;1.63;;
25435;SDS011;13363;52.772;-3.890;2022-08-06T10:32:13;1.80;;;1.50;;
25435;SDS011;13363;52.772;-3.890;2022-08-06T10:34:42;4.70;;;1.90;;
25435;SDS011;13363;52.772;-3.890;2022-08-06T10:37:13;2.17;;;1.80;;
25435;SDS011;13363;52.772;-3.890;2022-08-06T10:39:45;2.13;;;1.93;;
25435;SDS011;13363;52.772;-3.890;2022-08-06T10:42:13;3.63;;;2.20;;
25435;SDS011;13363;52.772;-3.890;2022-08-06T10:44:40;2.37;;;1.90;;
25435;SDS011;13363;52.772;-3.890;2022-08-06T10:47:09;2.73;;;1.47;;
25435;SDS011;13363;52.772;-3.890;2022-08-06T10:49:36;3.83;;;1.97;;
25435;SDS011;13363;52.772;-3.890;2022-08-06T10:52:03;2.77;;;1.90;;
25435;SDS011;13363;52.772;-3.890;2022-08-06T10:54:30;2.50;;;1.60;;
25435;SDS011;13363;52.772;-3.890;2022-08-06T10:56:58;1.97;;;1.57;;
25435;SDS011;13363;52.772;-3.890;2022-08-06T10:59:26;1.77;;;1.67;;
25435;SDS011;13363;52.772;-3.890;2022-08-06T11:01:55;2.10;;;1.50;;
25435;SDS011;13363;52.772;-3.890;2022-08-06T11:04:34;1.10;;;1.00;;
25435;SDS011;13363;52.772;-3.890;2022-08-06T11:15:35;2.00;;;1.50;;
25435;SDS011;13363;52.772;-3.890;2022-08-06T11:18:05;2.97;;;0.90;;
25435;SDS011;13363;52.772;-3.890;2022-08-06T11:25:48;1.80;;;1.40;;
25435;SDS011;13363;52.772;-3.890;2022-08-06T11:28:16;1.87;;;1.37;;
25435;SDS011;13363;52.772;-3.890;2022-08-06T11:31:05;1.50;;;1.00;;
25435;SDS011;13363;52.772;-3.890;2022-08-06T11:35:59;2.17;;;1.20;;
25435;SDS011;13363;52.772;-3.890;2022-08-06T11:41:49;3.53;;;1.20;;
25435;SDS011;13363;52.772;-3.890;2022-08-06T11:44:20;5.43;;;1.40;;
25435;SDS011;13363;52.772;-3.890;2022-08-06T11:46:47;3.13;;;1.23;;
25435;SDS011;13363;52.772;-3.890;2022-08-06T11:49:15;4.07;;;1.50;;
25435;SDS011;13363;52.772;-3.890;2022-08-06T11:51:57;1.37;;;1.27;;
25435;SDS011;13363;52.772;-3.890;2022-08-06T11:59:33;2.33;;;1.40;;
25435;SDS011;13363;52.772;-3.890;2022-08-06T12:02:08;2.73;;;1.03;;
25435;SDS011;13363;52.772;-3.890;2022-08-06T12:09:43;2.00;;;0.90;;
25435;SDS011;13363;52.772;-3.890;2022-08-06T12:14:49;2.90;;;1.40;;
25435;SDS011;13363;52.772;-3.890;2022-08-06T12:17:15;1.20;;;1.10;;
25435;SDS011;13363;52.772;-3.890;2022-08-06T12:19:54;1.20;;;1.10;;
25435;SDS011;13363;52.772;-3.890;2022-08-06T12:22:22;2.13;;;1.13;;
25435;SDS011;13363;52.772;-3.890;2022-08-06T12:24:49;3.93;;;1.20;;
25435;SDS011;13363;52.772;-3.890;2022-08-06T12:27:19;1.00;;;0.90;;
25435;SDS011;13363;52.772;-3.890;2022-08-06T12:29:47;2.07;;;1.20;;
25435;SDS011;13363;52.772;-3.890;2022-08-06T12:34:49;4.40;;;1.17;;
25435;SDS011;13363;52.772;-3.890;2022-08-06T12:37:19;3.23;;;1.33;;
25435;SDS011;13363;52.772;-3.890;2022-08-06T12:39:45;1.57;;;1.10;;
25435;SDS011;13363;52.772;-3.890;2022-08-06T12:45:28;1.47;;;1.20;;
25435;SDS011;13363;52.772;-3.890;2022-08-06T12:50:27;5.27;;;1.10;;
25435;SDS011;13363;52.772;-3.890;2022-08-06T12:53:03;0.93;;;0.93;;
25435;SDS011;13363;52.772;-3.890;2022-08-06T12:55:43;1.20;;;1.10;;
25435;SDS011;13363;52.772;-3.890;2022-08-06T12:58:17;1.57;;;1.10;;
25435;SDS011;13363;52.772;-3.890;2022-08-06T13:00:46;1.63;;;1.00;;
25435;SDS011;13363;52.772;-3.890;2022-08-06T13:03:16;1.30;;;0.90;;
25435;SDS011;13363;52.772;-3.890;2022-08-06T13:05:43;2.63;;;1.50;;
25435;SDS011;13363;52.772;-3.890;2022-08-06T13:08:10;2.10;;;1.33;;
25435;SDS011;13363;52.772;-3.890;2022-08-06T13:10:37;2.53;;;0.70;;
25435;SDS011;13363;52.772;-3.890;2022-08-06T13:13:06;2.60;;;0.80;;
25435;SDS011;13363;52.772;-3.890;2022-08-06T13:15:35;0.87;;;0.83;;
25435;SDS011;13363;52.772;-3.890;2022-08-06T13:18:11;1.90;;;1.03;;
25435;SDS011;13363;52.772;-3.890;2022-08-06T13:20:42;1.00;;;0.90;;
25435;SDS011;13363;52.772;-3.890;2022-08-06T13:23:11;1.10;;;1.00;;
25435;SDS011;13363;52.772;-3.890;2022-08-06T13:25:40;2.47;;;0.87;;
25435;SDS011;13363;52.772;-3.890;2022-08-06T13:28:10;1.57;;;1.07;;
25435;SDS011;13363;52.772;-3.890;2022-08-06T13:30:39;1.67;;;1.17;;
25435;SDS011;13363;52.772;-3.890;2022-08-06T13:33:16;2.60;;;1.20;;
25435;SDS011;13363;52.772;-3.890;2022-08-06T13:36:07;3.57;;;1.67;;
25435;SDS011;13363;52.772;-3.890;2022-08-06T13:38:36;1.80;;;1.17;;
25435;SDS011;13363;52.772;-3.890;2022-08-06T13:41:03;1.73;;;1.10;;
25435;SDS011;13363;52.772;-3.890;2022-08-06T13:43:42;1.50;;;1.00;;
25435;SDS011;13363;52.772;-3.890;2022-08-06T13:46:10;1.10;;;1.00;;
25435;SDS011;13363;52.772;-3.890;2022-08-06T13:48:41;2.43;;;1.10;;
25435;SDS011;13363;52.772;-3.890;2022-08-06T13:51:25;3.63;;;1.50;;
25435;SDS011;13363;52.772;-3.890;2022-08-06T13:53:51;1.37;;;1.10;;
25435;SDS011;13363;52.772;-3.890;2022-08-06T13:56:17;3.63;;;1.00;;
25435;SDS011;13363;52.772;-3.890;2022-08-06T13:58:43;3.23;;;1.20;;
25435;SDS011;13363;52.772;-3.890;2022-08-06T14:01:12;2.23;;;1.00;;
25435;SDS011;13363;52.772;-3.890;2022-08-06T14:03:39;2.10;;;1.40;;
25435;SDS011;13363;52.772;-3.890;2022-08-06T14:06:05;2.25;;;1.10;;
25435;SDS011;13363;52.772;-3.890;2022-08-06T14:08:31;1.93;;;1.27;;
25435;SDS011;13363;52.772;-3.890;2022-08-06T14:10:57;1.27;;;1.07;;
25435;SDS011;13363;52.772;-3.890;2022-08-06T14:13:23;4.37;;;1.27;;
25435;SDS011;13363;52.772;-3.890;2022-08-06T14:15:49;1.90;;;1.20;;
25435;SDS011;13363;52.772;-3.890;2022-08-06T14:18:18;1.73;;;1.03;;
25435;SDS011;13363;52.772;-3.890;2022-08-06T14:20:44;3.30;;;1.37;;
25435;SDS011;13363;52.772;-3.890;2022-08-06T14:23:11;1.13;;;1.10;;
25435;SDS011;13363;52.772;-3.890;2022-08-06T14:25:37;1.07;;;1.03;;
25435;SDS011;13363;52.772;-3.890;2022-08-06T14:28:03;1.80;;;1.17;;
25435;SDS011;13363;52.772;-3.890;2022-08-06T14:30:30;4.90;;;1.43;;
25435;SDS011;13363;52.772;-3.890;2022-08-06T14:32:56;1.50;;;0.90;;
25435;SDS011;13363;52.772;-3.890;2022-08-06T14:35:24;1.03;;;0.93;;
25435;SDS011;13363;52.772;-3.890;2022-08-06T14:37:50;2.50;;;1.20;;
25435;SDS011;13363;52.772;-3.890;2022-08-06T14:40:19;2.90;;;0.90;;
25435;SDS011;13363;52.772;-3.890;2022-08-06T14:43:05;3.80;;;1.23;;
25435;SDS011;13363;52.772;-3.890;2022-08-06T14:45:50;5.80;;;2.07;;
25435;SDS011;13363;52.772;-3.890;2022-08-06T14:48:15;4.47;;;0.90;;
25435;SDS011;13363;52.772;-3.890;2022-08-06T14:50:41;0.77;;;0.73;;
25435;SDS011;13363;52.772;-3.890;2022-08-06T14:53:08;1.83;;;1.00;;
25435;SDS011;13363;52.772;-3.890;2022-08-06T14:55:39;1.63;;;0.73;;
25435;SDS011;13363;52.772;-3.890;2022-08-06T14:58:05;1.67;;;1.03;;
25435;SDS011;13363;52.772;-3.890;2022-08-06T15:00:31;2.47;;;1.10;;
25435;SDS011;13363;52.772;-3.890;2022-08-06T15:02:58;0.80;;;0.80;;
25435;SDS011;13363;52.772;-3.890;2022-08-06T15:05:24;0.77;;;0.70;;
25435;SDS011;13363;52.772;-3.890;2022-08-06T15:07:50;1.33;;;0.80;;
25435;SDS011;13363;52.772;-3.890;2022-08-06T15:10:16;1.50;;;0.80;;
25435;SDS011;13363;52.772;-3.890;2022-08-06T15:12:42;2.73;;;1.00;;
25435;SDS011;13363;52.772;-3.890;2022-08-06T15:15:08;0.97;;;0.73;;
25435;SDS011;13363;52.772;-3.890;2022-08-06T15:17:34;0.80;;;0.80;;
25435;SDS011;13363;52.772;-3.890;2022-08-06T15:20:00;1.43;;;1.07;;
25435;SDS011;13363;52.772;-3.890;2022-08-06T15:22:26;0.93;;;0.70;;
25435;SDS011;13363;52.772;-3.890;2022-08-06T15:24:52;2.73;;;1.10;;
25435;SDS011;13363;52.772;-3.890;2022-08-06T15:27:18;2.83;;;0.80;;
25435;SDS011;13363;52.772;-3.890;2022-08-06T15:29:47;3.43;;;1.10;;
25435;SDS011;13363;52.772;-3.890;2022-08-06T15:32:13;2.60;;;1.00;;
25435;SDS011;13363;52.772;-3.890;2022-08-06T15:34:39;1.17;;;0.73;;
25435;SDS011;13363;52.772;-3.890;2022-08-06T15:37:05;1.53;;;0.70;;
25435;SDS011;13363;52.772;-3.890;2022-08-06T15:39:31;1.80;;;0.67;;
25435;SDS011;13363;52.772;-3.890;2022-08-06T15:41:59;1.43;;;1.00;;
25435;SDS011;13363;52.772;-3.890;2022-08-06T15:44:25;5.10;;;1.47;;
25435;SDS011;13363;52.772;-3.890;2022-08-06T15:46:51;0.80;;;0.80;;
25435;SDS011;13363;52.772;-3.890;2022-08-06T15:49:17;3.83;;;1.27;;
25435;SDS011;13363;52.772;-3.890;2022-08-06T15:51:43;2.27;;;0.87;;
25435;SDS011;13363;52.772;-3.890;2022-08-06T15:54:09;1.27;;;0.90;;
25435;SDS011;13363;52.772;-3.890;2022-08-06T15:56:36;2.40;;;1.17;;
25435;SDS011;13363;52.772;-3.890;2022-08-06T15:59:02;0.97;;;0.97;;
25435;SDS011;13363;52.772;-3.890;2022-08-06T16:01:29;2.83;;;0.90;;
25435;SDS011;13363;52.772;-3.890;2022-08-06T16:03:56;2.43;;;1.57;;
25435;SDS011;13363;52.772;-3.890;2022-08-06T16:06:21;0.90;;;0.90;;